Archival Weather

Chicago O'Hare International

Chicago, Illinois (KORD)

Report from: Thursday, December 29, 2022 11:51 PM CST
Current time: Friday, June 21, 2024 1:43 AM CDT

Current weather – Weather history – Daily summaries
Weather forecast

Temperature13.3°C (55.9°F)
Dew point11.7°C (53.1°F)
Winds 16 kts (8.2 m/s, 18.4 mph) South-Southwest (200°)
Wind gusts 26 kts (13.4 m/s, 29.9 mph)
Peak wind 30 kts (15.4 m/s, 34.5 mph) South-Southwest (200°) at 04:59
Visibility9 mi. (14.5 km)
Clouds Ceiling: Overcast 700 ft. (213 m)
Altimeter29.84 in.Hg (1010 mB)
Relative humidity90 %
Density altitude84 ft. (26 m)
Sea-level pressure101.1 kPa (1011 mB, 29.84 in.Hg)
Max temp last 6 hours13.9°C (57.0°F)
Min temp last 6 hours12.2°C (54.0°F)
Max temp last 24 hours15.0°C (59.0°F)
Min temp last 24 hours6.1°C (43.0°F)
Remarks System requires maintenance
Automated weather observing station with precipitation discriminator
Pressure steady
Flight conditions Instrument Meteorological Conditions
Raw dataKORD 300551Z 20016G26KT 9SM OVC007 13/12 A2984 RMK AO2 PK WND 20030/0459 SLP105 T01330117 10139 20122 401500061 54000 $
An error has occurred. This application may no longer respond until reloaded. Reload 🗙